Alanya, Turkey
Current Conditions -  °F | °C
As of 6:50 AM on Friday 28 Nov 2014 (Local Time) from LTAI Reporting Station
Clear Clear  
Wind Chill: 39°   Ceiling: Unl
Heat Index: 43°   Visibility: 6mi
Dew Point: 34°   Wind: 7mph
Humidity: 70%   Direction: 360°N
Pressure: 30.15"   Gusts: NA
Location:  36.56°N, 32°E
Report Text: LTAI 280350Z 36006KT CAVOK 06/01 Q1021 NOSIG
Loading
Personal Weather Stations






























Interactive Weather Map New forecast layout! Learn more

10-Day Weather Forecast

Advertisements
Track Severe Weather on mobile